• Join FlightAware (Why Join?)
  • Login
  • US Flag 
09:23PM EST


 

Airport Tracker/Info


-or-


 

Live Flight TrackerFlight Track Log ✈ N677F ✈ 01-Oct-2013 ✈ KBJC - KBJC

Flight Track Log - Related Links

Times and Time Zones

All times are in EDT time to prevent confusion due to time zone crossing. See the N677F flight status page for this flight to view local times or setup timezone preferences in your user account.

Time Position Orientation Groundspeed Altitude Reporting Facility
EDT Latitude Longitude Course Direction KTS MPH feet Rate Location/Type
01:31PM 39.9333 -105.1500 360° North 205 236 7,000  Level Denver TRACON
01:32PM 40.0000 -105.1500 360° North 256 295 9,200 2,040 Climbing Denver TRACON
01:33PM 40.0833 -105.1167 17° North 318 366 11,100 2,100 Climbing Denver TRACON
01:34PM 40.1500 -105.0167 49° Northeast 371 427 13,500 2,100 Climbing Denver TRACON
01:35PM 40.2167 -104.9000 53° Northeast 398 458 15,300 1,800 Climbing Denver TRACON
01:36PM 40.2667 -104.8000 57° Northeast 440 506 17,000 840 Climbing Denver TRACON
01:37PM 40.3500 -104.6500 54° Northeast 427 491 17,000  Level Denver TRACON
01:38PM 40.4167 -104.5333 53° Northeast 423 487 17,000  Level Denver TRACON
01:39PM 40.4833 -104.4167 53° Northeast 428 493 17,000  Level Denver TRACON
01:40PM 40.5792 -104.2528 52° Northeast 433 498 17,000  Level Denver Center
01:41PM 40.6864 -104.1678 31° Northeast 421 484 17,000  Level Denver Center
01:42PM 40.7914 -104.1161 20° North 406 467 17,000  Level Denver Center
01:43PM 40.9197 -104.0414 24° Northeast 416 479 17,000  Level Denver Center
01:44PM 41.0428 -103.9739 22° Northeast 420 483 17,000  Level Denver Center
01:45PM 41.1453 -103.9147 23° Northeast 422 486 17,000  Level Denver Center
01:46PM 41.2664 -103.8456 23° Northeast 422 486 17,000  Level Denver Center
01:47PM 41.3689 -103.7864 23° Northeast 421 484 17,000  Level Denver Center
01:48PM 41.4886 -103.7172 23° Northeast 421 484 17,100  Climbing Denver Center
01:49PM 41.5894 -103.6592 23° Northeast 415 478 17,000 -60 Descending Denver Center
01:51PM 41.7067 -103.5911 23° Northeast 412 474 17,000  Level Denver Center
01:52PM 41.8064 -103.5325 24° Northeast 410 472 17,000  Level Denver Center
01:53PM 41.9203 -103.4606 25° Northeast 407 468 17,000  Level Denver Center
01:54PM 42.0136 -103.3853 31° Northeast 409 471 17,000  Level Denver Center
01:55PM 42.1075 -103.3092 31° Northeast 411 473 17,000  Level Denver Center
01:56PM 42.2175 -103.2183 31° Northeast 413 475 17,000  Level Denver Center
01:57PM 42.2947 -103.1550 31° Northeast 413 475 17,000 -120 Level Denver Center
01:58PM 42.4192 -103.0517 31° Northeast 412 474 16,800 -780 Descending Denver Center
01:59PM 42.4928 -102.9506 45° Northeast 413 475 15,500 -660 Descending Denver Center
02:00PM 42.5292 -102.8089 71° East 368 423 15,500  Level Denver Center
02:01PM 42.5575 -102.6894 72° East 355 409 15,500  Level Denver Center
02:02PM 42.5869 -102.5686 72° East 318 366 15,500  Level Denver Center
02:03PM 42.6136 -102.4658 71° East 306 352 15,500  Level Denver Center
02:04PM 42.6411 -102.3444 73° East 303 349 15,500  Level Denver Center
02:05PM 42.6661 -102.2417 72° East 301 346 15,500  Level Denver Center
02:06PM 42.6992 -102.1208 70° East 302 348 15,500  Level Denver Center
02:07PM 42.7236 -102.0175 72° East 300 345 15,500  Level Denver Center
02:08PM 42.7558 -101.8972 70° East 303 349 15,500  Level Denver Center
02:09PM 42.7822 -101.7942 71° East 300 345 15,500  Level Denver Center
02:10PM 42.8122 -101.6736 71° East 303 349 15,500  Level Denver Center
02:11PM 42.8400 -101.5711 70° East 303 349 15,500  Level Denver Center
02:12PM 42.8664 -101.4681 71° East 301 346 15,500  Level Denver Center
02:13PM 42.8956 -101.3567 70° East 304 350 15,500  Level Denver Center
02:14PM 42.9267 -101.2428 70° East 317 365 15,500  Level Denver Center
02:15PM 42.9642 -101.1031 70° East 325 374 15,500  Level Denver Center
02:16PM 42.9917 -101.0122 67° East 324 373 15,500  Level Denver Center
02:17PM 43.0903 -101.0125 360° North 296 341 15,500  Level Denver Center
02:18PM 43.1683 -101.0397 346° North 290 334 15,500  Level Denver Center
02:19PM 43.2467 -101.0642 347° North 289 333 15,500  Level Denver Center
02:21PM 43.3231 -101.0867 348° North 284 327 15,500  Level Denver Center
02:22PM 43.4139 -101.1089 350° North 279 321 15,500  Level Denver Center
02:23PM 43.4928 -101.1322 348° North 282 325 15,500  Level Denver Center
02:24PM 43.5719 -101.1558 348° North 286 329 15,500  Level Denver Center
02:25PM 43.6519 -101.1514 North 310 357 15,500  Level Denver Center
02:26PM 43.7011 -101.0519 56° Northeast 323 372 15,500  Level Denver Center
02:27PM 43.7519 -101.1178 317° Northwest 294 338 15,500  Level Denver Center
02:28PM 43.6711 -101.1228 183° South 289 333 15,500  Level Denver Center
02:29PM 43.5956 -101.0683 152° Southeast 299 344 15,500  Level Denver Center
02:30PM 43.5211 -101.0183 154° Southeast 301 346 15,500  Level Denver Center
02:31PM 43.4481 -100.9664 153° Southeast 298 343 15,500  Level Denver Center
02:32PM 43.3728 -100.9128 153° Southeast 300 345 15,500  Level Denver Center
02:33PM 43.2986 -100.8631 154° Southeast 300 345 15,500  Level Denver Center
02:34PM 43.2236 -100.8114 153° Southeast 301 346 15,500  Level Denver Center
02:35PM 43.1375 -100.7603 157° South 291 335 15,500  Level Denver Center
02:36PM 43.0728 -100.7725 188° South 283 326 15,500  Level Denver Center
02:37PM 43.0483 -100.8669 251° West 269 310 15,500  Level Denver Center
02:38PM 43.0236 -100.9608 250° West 260 299 15,500  Level Denver Center
02:39PM 43.0006 -101.0553 252° West 260 299 15,500  Level Denver Center
02:40PM 42.9767 -101.1475 251° West 258 297 15,500  Level Denver Center
02:41PM 42.9483 -101.2589 251° West 258 297 15,500  Level Denver Center
02:42PM 42.9256 -101.3514 251° West 258 297 15,500  Level Denver Center
02:43PM 42.9039 -101.4381 251° West 260 299 15,500  Level Denver Center
02:44PM 42.9447 -101.5169 305° West 280 322 15,500  Level Denver Center
02:45PM 43.0203 -101.5417 347° North 292 336 15,500  Level Denver Center
02:46PM 43.0983 -101.5653 348° North 290 334 15,500  Level Denver Center
02:47PM 43.1764 -101.5875 348° North 286 329 15,500  Level Denver Center
02:48PM 43.2708 -101.6161 348° North 288 331 15,500  Level Denver Center
02:49PM 43.3478 -101.6369 349° North 286 329 15,500  Level Denver Center
02:50PM 43.4269 -101.6614 347° North 288 331 15,500  Level Denver Center
02:52PM 43.5036 -101.6822 349° North 284 327 15,500  Level Denver Center
02:53PM 43.5686 -101.6194 35° Northeast 320 368 15,500  Level Denver Center
02:54PM 43.5964 -101.4989 72° East 328 377 15,500  Level Denver Center
02:55PM 43.6314 -101.3553 71° East 329 379 15,500  Level Denver Center
02:56PM 43.6594 -101.2331 72° East 331 381 15,500  Level Denver Center
02:57PM 43.6889 -101.1094 72° East 336 387 15,500  Level Denver Center
02:58PM 43.7181 -100.9878 72° East 336 387 15,500  Level Denver Center
02:59PM 43.7469 -100.8700 71° East 332 382 15,500  Level Denver Center
03:00PM 43.7767 -100.7494 71° East 331 381 15,500  Level Denver Center
03:01PM 43.7425 -100.6478 115° Southeast 337 388 15,500  Level Denver Center
03:02PM 43.7556 -100.5131 82° East 333 383 15,500  Level Denver Center
03:03PM 43.8006 -100.5739 316° Northwest 296 341 15,500  Level Denver Center
03:04PM 43.7742 -100.6639 248° West 268 308 15,500  Level Denver Center
03:05PM 43.7464 -100.7533 247° West 258 297 15,500  Level Denver Center
03:06PM 43.7189 -100.8439 247° West 256 295 15,500  Level Denver Center
03:07PM 43.6928 -100.9344 248° West 254 292 15,500  Level Denver Center
03:08PM 43.6683 -101.0242 249° West 251 289 15,500  Level Denver Center
03:09PM 43.6378 -101.1358 249° West 254 292 15,500  Level Denver Center
03:10PM 43.6117 -101.2244 248° West 254 292 15,600  Climbing Denver Center
03:11PM 43.5894 -101.3228 253° West 259 298 15,600  Level Denver Center
03:12PM 43.5439 -101.3886 226° Southwest 279 321 15,600  Level Denver Center
03:13PM 43.4692 -101.3450 157° South 296 341 15,600  Level Denver Center
03:14PM 43.3931 -101.2911 153° Southeast 302 348 15,600  Level Denver Center
03:15PM 43.3189 -101.2431 155° Southeast 299 344 15,600  Level Denver Center
03:16PM 43.2289 -101.1811 153° Southeast 301 346 15,600  Level Denver Center
03:17PM 43.1561 -101.1328 154° Southeast 293 337 15,600  Level Denver Center
03:18PM 43.0819 -101.0819 153° Southeast 296 341 15,600  Level Denver Center
03:20PM 43.0086 -101.0306 153° Southeast 298 343 15,600  Level Denver Center
03:21PM 42.9336 -100.9897 158° South 295 339 15,600  Level Denver Center
03:22PM 42.8983 -101.0761 241° Southwest 264 304 15,600  Level Denver Center
03:23PM 42.8722 -101.1669 249° West 258 297 15,600  Level Denver Center
03:24PM 42.8483 -101.2564 250° West 254 292 15,600  Level Denver Center
03:25PM 42.9261 -101.2750 350° North 310 357 15,600  Level Denver Center
03:26PM 42.9122 -101.1719 100° East 317 365 15,600  Level Denver Center
03:27PM 42.8639 -101.2200 216° Southwest 259 298 15,600  Level Denver Center
03:28PM 42.9308 -101.2481 343° North 294 338 15,600  Level Denver Center
03:29PM 42.9364 -101.1394 86° East 316 364 15,600  Level Denver Center
03:30PM 42.8789 -101.1644 198° South 265 305 15,600  Level Denver Center
03:31PM 42.9350 -101.2178 325° Northwest 298 343 15,600  Level Denver Center
03:32PM 42.9892 -101.0892 60° Northeast 332 382 15,600  Level Denver Center
03:33PM 43.0244 -100.9736 67° East 332 382 15,600  Level Denver Center
03:34PM 43.0739 -100.8714 56° Northeast 349 402 15,600  Level Denver Center
03:35PM 43.1311 -100.9167 330° Northwest 287 330 15,600  Level Denver Center
03:36PM 43.0764 -100.9547 207° Southwest 277 319 15,600  Level Denver Center
03:37PM 43.0658 -100.8478 98° East 314 361 15,600  Level Denver Center
03:38PM 43.1414 -100.8517 358° North 312 359 15,600  Level Denver Center
03:39PM 43.1114 -100.9172 238° Southwest 269 310 15,600  Level Denver Center
03:40PM 43.0772 -100.8114 114° Southeast 326 375 15,600  Level Denver Center
03:41PM 43.1514 -100.7997 North 305 351 15,600  Level Denver Center
03:42PM 43.1447 -100.8911 264° West 271 312 15,600  Level Denver Center
03:43PM 43.1203 -100.9847 250° West 258 297 15,600  Level Denver Center
03:44PM 43.0936 -101.0764 248° West 258 297 15,600  Level Denver Center
03:45PM 43.0658 -101.1739 249° West 272 313 15,600  Level Denver Center
03:46PM 43.0419 -101.2533 248° West 227 261 15,600  Level Denver Center
03:47PM 43.0108 -101.3606 248° West 304 350 15,600  Level Denver Center
03:49PM 42.9625 -101.5383 250° West 343 395 15,600  Level Denver Center
03:50PM 42.9369 -101.6306 249° West 272 313 15,600  Level Denver Center
03:51PM 42.9103 -101.7225 248° West 242 278 15,600  Level Denver Center
03:52PM 42.8847 -101.8156 249° West 277 319 15,600 180 Level Denver Center
03:53PM 42.9347 -101.9189 303° West 336 387 16,000 1,260 Climbing Denver Center
03:54PM 43.0411 -101.9000 North 402 463 18,300 2,220 Climbing Denver Center
03:55PM 43.1706 -101.8589 13° North 425 489 20,600 2,160 Climbing Denver Center
03:56PM 43.2869 -101.8222 13° North 443 510 22,800 2,040 Climbing Denver Center
03:57PM 43.4219 -101.7814 12° North 462 532 24,900 1,980 Climbing Denver Center
03:58PM 43.5511 -101.7411 13° North 474 545 26,900 1,860 Climbing Denver Center
03:59PM 43.6808 -101.6989 13° North 478 550 28,800 1,500 Climbing Denver Center
04:00PM 43.8114 -101.6567 13° North 482 555 30,000 540 Climbing Denver Center
04:01PM 43.9458 -101.6139 13° North 492 566 30,000  Level Denver Center
04:02PM 44.0617 -101.5767 13° North 419 482 30,000  Level Denver Center
04:03PM 44.1811 -101.5350 14° North 397 457 30,000  Level Minneapolis Center
04:04PM 44.2983 -101.4958 13° North 408 470 30,000  Level Minneapolis Center
04:05PM 44.4311 -101.4542 13° North 447 514 30,000  Level Minneapolis Center
04:06PM 44.5703 -101.4097 13° North 478 550 30,000  Level Minneapolis Center
04:07PM 44.7339 -101.3583 13° North 494 568 30,000  Level Minneapolis Center
04:08PM 44.8333 -101.3244 14° North 421 484 30,000  Level Minneapolis Center
04:09PM 44.9442 -101.2908 12° North 398 458 30,000  Level Minneapolis Center
04:10PM 45.0678 -101.2508 13° North 434 499 30,000 -120 Level Minneapolis Center
04:11PM 45.2019 -101.2044 14° North 475 547 29,800 -1,020 Descending Minneapolis Center
04:12PM 45.3364 -101.1589 13° North 489 563 27,900 -1,920 Descending Minneapolis Center
04:13PM 45.4650 -101.1161 13° North 482 555 25,900 -1,980 Descending Minneapolis Center
04:14PM 45.5903 -101.0711 14° North 471 542 23,900 -1,920 Descending Minneapolis Center
04:15PM 45.7164 -101.1042 350° North 403 464 22,000 -960 Descending Minneapolis Center
04:16PM 45.7297 -101.2350 278° West 348 400 22,000  Level Minneapolis Center
04:17PM 45.6547 -101.3242 220° Southwest 357 411 22,000  Level Minneapolis Center
04:18PM 45.5608 -101.3794 202° Southwest 363 418 22,000  Level Minneapolis Center
04:20PM 45.4658 -101.4372 203° Southwest 370 426 22,000  Level Minneapolis Center
04:21PM 45.3775 -101.4906 203° Southwest 360 414 22,000  Level Minneapolis Center
04:22PM 45.3028 -101.5369 204° Southwest 265 305 22,000  Level Minneapolis Center
04:23PM 45.2272 -101.5819 203° Southwest 281 323 22,000  Level Minneapolis Center
04:24PM 45.1275 -101.6431 203° Southwest 371 427 22,000  Level Minneapolis Center
04:25PM 45.0258 -101.7003 202° Southwest 389 448 22,000  Level Minneapolis Center
04:26PM 44.9564 -101.7428 203° Southwest 326 375 22,000  Level Minneapolis Center
04:27PM 44.8925 -101.7800 202° Southwest 273 314 22,000  Level Minneapolis Center
04:28PM 44.7867 -101.8433 203° Southwest 310 357 22,000  Level Minneapolis Center
04:29PM 44.6889 -101.9011 203° Southwest 355 409 22,000  Level Minneapolis Center
04:30PM 44.5953 -101.9558 203° Southwest 367 422 22,000  Level Minneapolis Center
04:31PM 44.5022 -102.0128 204° Southwest 373 429 22,000  Level Denver Center
04:32PM 44.3867 -102.0797 202° Southwest 375 432 22,000  Level Denver Center
04:33PM 44.2928 -102.1364 203° Southwest 372 428 22,000  Level Denver Center
04:34PM 44.1953 -102.1914 202° Southwest 374 430 22,000  Level Denver Center
04:35PM 44.0975 -102.2450 201° Southwest 378 435 22,000  Level Denver Center
04:36PM 44.0208 -102.2917 204° Southwest 378 435 22,000  Level Denver Center
04:37PM 43.9036 -102.3597 203° Southwest 379 436 22,000  Level Denver Center
04:38PM 43.7889 -102.4222 201° Southwest 380 437 22,000  Level Denver Center
04:39PM 43.6961 -102.4764 203° Southwest 379 436 22,000  Level Denver Center
04:40PM 43.5881 -102.5381 202° Southwest 377 434 22,000  Level Denver Center
04:41PM 43.4956 -102.5911 203° Southwest 376 433 22,000  Level Denver Center
04:42PM 43.4033 -102.6464 204° Southwest 377 434 22,000  Level Denver Center
04:43PM 43.2933 -102.7069 202° Southwest 378 435 22,000  Level Denver Center
04:45PM 43.2033 -102.7622 204° Southwest 376 433 22,000  Level Denver Center
04:46PM 43.0922 -102.8225 202° Southwest 382 440 22,000  Level Denver Center
04:47PM 42.9822 -102.8831 202° Southwest 382 440 22,000  Level Denver Center
04:48PM 42.8578 -102.9522 202° Southwest 380 437 22,000  Level Denver Center
04:49PM 42.7472 -103.0131 202° Southwest 381 438 22,000  Level Denver Center
04:50PM 42.6536 -103.0669 203° Southwest 381 438 22,000  Level Denver Center
04:51PM 42.5622 -103.1183 203° Southwest 377 434 22,000  Level Denver Center
04:52PM 42.4519 -103.1794 202° Southwest 380 437 22,000  Level Denver Center
04:53PM 42.3594 -103.2297 202° Southwest 376 433 22,000  Level Denver Center
04:54PM 42.2511 -103.2883 202° Southwest 375 432 22,000  Level Denver Center
04:55PM 42.1581 -103.3389 202° Southwest 375 432 22,000  Level Denver Center
04:56PM 42.0497 -103.3981 202° Southwest 375 432 22,000  Level Denver Center
04:57PM 41.9564 -103.4483 202° Southwest 376 433 22,000  Level Denver Center
04:58PM 41.8397 -103.4856 193° South 385 443 22,000  Level Denver Center
04:59PM 41.7314 -103.4875 181° South 403 464 22,000  Level Denver Center
05:00PM 41.6250 -103.4897 181° South 401 461 22,000  Level Denver Center
05:01PM 41.5017 -103.4919 181° South 398 458 22,000  Level Denver Center
05:03PM 41.3967 -103.4944 181° South 396 456 22,000  Level Denver Center
05:04PM 41.2572 -103.4986 181° South 392 451 22,000  Level Denver Center
05:05PM 41.1356 -103.5019 181° South 392 451 22,000  Level Denver Center
05:06PM 41.0311 -103.5039 181° South 391 450 22,000  Level Denver Center
05:07PM 40.9217 -103.5111 183° South 388 447 22,000  Level Denver Center
05:08PM 40.8294 -103.5564 200° South 357 411 22,000  Level Denver Center
05:09PM 40.7372 -103.6028 201° Southwest 354 407 22,000  Level Denver Center
05:10PM 40.6436 -103.6486 200° South 358 412 22,000  Level Denver Center
05:11PM 40.5489 -103.7394 216° Southwest 353 406 22,000 -420 Level Denver Center
05:12PM 40.4819 -103.8331 227° Southwest 351 404 21,200 -1,260 Descending Denver Center
05:13PM 40.4122 -103.9306 227° Southwest 347 399 19,500 -1,500 Descending Denver Center
05:14PM 40.3678 -104.0283 239° Southwest 309 356 18,100 -1,440 Descending Denver Center
05:15PM 40.3400 -104.1414 252° West 304 350 16,600 -1,500 Descending Denver Center
05:16PM 40.3097 -104.2492 250° West 320 368 15,100 -1,260 Descending Denver Center
05:17PM 40.2750 -104.3778 251° West 348 400 14,000 -1,200 Descending Denver Center
05:18PM 40.2417 -104.4992 250° West 354 407 12,700 -1,020 Descending Denver Center
05:19PM 40.2119 -104.6139 251° West 338 389 12,000 -720 Descending Denver Center
05:20PM 40.1822 -104.7339 252° West 325 374 11,300 -1,500 Descending Denver Center
05:21PM 40.1614 -104.8333 255° West 291 335 9,000 -1,620 Descending Denver Center
05:22PM 40.1139 -104.9183 234° Southwest 271 312 8,000 -600 Descending Denver Center
05:23PM 40.0689 -104.9894 230° Southwest 255 293 7,800  Descending Denver Center
05:24PM 40.0322 -105.0631 237° Southwest 229 264 8,000  Climbing Denver Center
05:25PM 40.0050 -105.1375 245° Southwest 229 264 7,900 -360 Descending Denver Center
05:26PM 39.9722 -105.1808 225° Southwest 158 182 7,200 -720 Descending Denver Center
05:28PM 39.9311 -105.1603 159° South 143 165 6,300 -720 Descending Denver Center
05:29PM 39.9103 -105.1186 123° Southeast 138 159 5,700 -600 Descending Denver Center